sensor_id;sensor_type;location;lat;lon;timestamp;pressure;altitude;pressure_sealevel;temperature;humidity
46598;BME280;32318;48.858;8.252;2023-07-31T00:05:47;100315.50;;;18.01;65.46
46598;BME280;32318;48.858;8.252;2023-07-31T05:18:18;100157.63;;;16.98;66.08
46598;BME280;32318;48.858;8.252;2023-07-31T05:26:18;100165.47;;;17.26;66.23
46598;BME280;32318;48.858;8.252;2023-07-31T05:34:18;100160.88;;;17.53;66.85
46598;BME280;32318;48.858;8.252;2023-07-31T05:42:19;100161.44;;;17.69;66.21
46598;BME280;32318;48.858;8.252;2023-07-31T05:50:19;100148.84;;;17.95;66.04
46598;BME280;32318;48.858;8.252;2023-07-31T05:58:19;100151.09;;;18.11;64.33
46598;BME280;32318;48.858;8.252;2023-07-31T06:06:19;100134.31;;;18.34;64.39
46598;BME280;32318;48.858;8.252;2023-07-31T06:14:20;100136.47;;;18.58;63.69
46598;BME280;32318;48.858;8.252;2023-07-31T06:22:20;100153.69;;;18.63;62.58
46598;BME280;32318;48.858;8.252;2023-07-31T06:30:20;100150.72;;;18.72;62.88
46598;BME280;32318;48.858;8.252;2023-07-31T06:38:25;100146.84;;;18.86;60.39
46598;BME280;32318;48.858;8.252;2023-07-31T06:46:25;100150.50;;;18.99;61.78
46598;BME280;32318;48.858;8.252;2023-07-31T06:54:26;100152.13;;;19.00;60.49
46598;BME280;32318;48.858;8.252;2023-07-31T07:02:26;100148.84;;;18.98;61.21
46598;BME280;32318;48.858;8.252;2023-07-31T07:10:26;100144.19;;;19.05;60.42
46598;BME280;32318;48.858;8.252;2023-07-31T07:18:27;100133.94;;;19.32;59.68
46598;BME280;32318;48.858;8.252;2023-07-31T07:26:27;100129.81;;;19.48;60.04
46598;BME280;32318;48.858;8.252;2023-07-31T07:34:28;100129.94;;;19.53;59.68
46598;BME280;32318;48.858;8.252;2023-07-31T07:42:28;100117.00;;;19.55;58.89
46598;BME280;32318;48.858;8.252;2023-07-31T07:50:29;100112.47;;;19.86;58.30
46598;BME280;32318;48.858;8.252;2023-07-31T07:58:29;100110.88;;;20.28;57.90
46598;BME280;32318;48.858;8.252;2023-07-31T08:06:29;100112.44;;;20.47;56.87
46598;BME280;32318;48.858;8.252;2023-07-31T08:14:30;100117.06;;;20.59;55.54
46598;BME280;32318;48.858;8.252;2023-07-31T08:22:31;100112.53;;;20.83;56.13
46598;BME280;32318;48.858;8.252;2023-07-31T08:30:32;100104.97;;;20.97;56.18
46598;BME280;32318;48.858;8.252;2023-07-31T08:38:33;100106.25;;;21.06;55.70
46598;BME280;32318;48.858;8.252;2023-07-31T08:46:34;100073.78;;;21.11;54.77
46598;BME280;32318;48.858;8.252;2023-07-31T08:54:34;100067.94;;;21.43;54.13
46598;BME280;32318;48.858;8.252;2023-07-31T09:02:51;100070.38;;;21.57;53.70
46598;BME280;32318;48.858;8.252;2023-07-31T09:10:54;100074.75;;;21.70;53.65
46598;BME280;32318;48.858;8.252;2023-07-31T09:18:56;100053.31;;;22.02;53.05
46598;BME280;32318;48.858;8.252;2023-07-31T09:26:58;100042.06;;;22.11;52.29
46598;BME280;32318;48.858;8.252;2023-07-31T09:34:58;100038.59;;;22.32;52.09
46598;BME280;32318;48.858;8.252;2023-07-31T09:43:01;100028.97;;;22.42;51.45
46598;BME280;32318;48.858;8.252;2023-07-31T09:51:04;100027.97;;;22.48;50.23
46598;BME280;32318;48.858;8.252;2023-07-31T09:59:04;100021.53;;;22.37;50.67
46598;BME280;32318;48.858;8.252;2023-07-31T10:07:05;100005.19;;;22.20;51.34
46598;BME280;32318;48.858;8.252;2023-07-31T10:15:06;100004.81;;;22.11;51.69
46598;BME280;32318;48.858;8.252;2023-07-31T10:23:08;100008.94;;;22.31;51.47
46598;BME280;32318;48.858;8.252;2023-07-31T10:31:09;100015.53;;;22.52;51.18
46598;BME280;32318;48.858;8.252;2023-07-31T10:39:35;100009.72;;;22.65;51.21
46598;BME280;32318;48.858;8.252;2023-07-31T10:47:42;100011.06;;;22.63;49.23
46598;BME280;32318;48.858;8.252;2023-07-31T10:55:43;100012.56;;;22.93;49.16
46598;BME280;32318;48.858;8.252;2023-07-31T11:03:48;100007.19;;;22.98;48.96
46598;BME280;32318;48.858;8.252;2023-07-31T11:11:49;100004.19;;;22.99;49.79
46598;BME280;32318;48.858;8.252;2023-07-31T11:19:51;99994.97;;;23.00;48.59
46598;BME280;32318;48.858;8.252;2023-07-31T11:27:52;99988.50;;;23.07;49.29
46598;BME280;32318;48.858;8.252;2023-07-31T11:35:54;99981.59;;;23.43;49.20
46598;BME280;32318;48.858;8.252;2023-07-31T11:43:59;99965.13;;;23.60;48.96
46598;BME280;32318;48.858;8.252;2023-07-31T11:51:59;99947.47;;;23.95;47.81
46598;BME280;32318;48.858;8.252;2023-07-31T12:00:00;99932.69;;;24.24;47.07
46598;BME280;32318;48.858;8.252;2023-07-31T12:08:09;99914.56;;;24.50;47.76
46598;BME280;32318;48.858;8.252;2023-07-31T12:16:09;99911.25;;;24.43;47.88
46598;BME280;32318;48.858;8.252;2023-07-31T12:24:10;99895.47;;;24.50;47.56
46598;BME280;32318;48.858;8.252;2023-07-31T12:32:23;99892.22;;;24.58;47.41
46598;BME280;32318;48.858;8.252;2023-07-31T12:40:28;99889.50;;;24.53;47.75
46598;BME280;32318;48.858;8.252;2023-07-31T12:48:29;99875.28;;;24.56;47.92
46598;BME280;32318;48.858;8.252;2023-07-31T12:56:29;99869.25;;;24.49;46.79
46598;BME280;32318;48.858;8.252;2023-07-31T13:04:29;99851.28;;;24.64;47.78
46598;BME280;32318;48.858;8.252;2023-07-31T13:12:30;99856.81;;;24.74;47.53
46598;BME280;32318;48.858;8.252;2023-07-31T13:20:30;99829.69;;;24.47;47.76
46598;BME280;32318;48.858;8.252;2023-07-31T13:28:30;99832.97;;;24.49;48.27
46598;BME280;32318;48.858;8.252;2023-07-31T13:36:30;99824.50;;;24.50;47.23
46598;BME280;32318;48.858;8.252;2023-07-31T13:44:31;99822.84;;;24.44;47.21
46598;BME280;32318;48.858;8.252;2023-07-31T13:52:31;99820.66;;;24.41;47.36
46598;BME280;32318;48.858;8.252;2023-07-31T14:00:31;99807.81;;;24.41;47.79
46598;BME280;32318;48.858;8.252;2023-07-31T14:08:32;99810.25;;;24.27;49.08
46598;BME280;32318;48.858;8.252;2023-07-31T14:16:32;99805.53;;;24.18;49.21
46598;BME280;32318;48.858;8.252;2023-07-31T14:24:32;99802.53;;;24.14;49.42
46598;BME280;32318;48.858;8.252;2023-07-31T14:32:32;99798.16;;;24.13;49.08
46598;BME280;32318;48.858;8.252;2023-07-31T14:40:33;99773.84;;;24.06;49.19
46598;BME280;32318;48.858;8.252;2023-07-31T14:48:33;99768.16;;;24.08;49.11
46598;BME280;32318;48.858;8.252;2023-07-31T14:56:33;99752.88;;;24.07;49.82
46598;BME280;32318;48.858;8.252;2023-07-31T15:04:34;99722.19;;;24.48;49.50
46598;BME280;32318;48.858;8.252;2023-07-31T15:12:34;99717.03;;;24.72;48.81
46598;BME280;32318;48.858;8.252;2023-07-31T15:20:34;99708.84;;;24.72;48.98
46598;BME280;32318;48.858;8.252;2023-07-31T15:28:35;99700.69;;;24.82;49.05
46598;BME280;32318;48.858;8.252;2023-07-31T15:36:37;99696.03;;;24.72;48.87
46598;BME280;32318;48.858;8.252;2023-07-31T15:44:37;99701.19;;;24.53;49.04
46598;BME280;32318;48.858;8.252;2023-07-31T15:52:41;99703.84;;;24.27;50.05
46598;BME280;32318;48.858;8.252;2023-07-31T16:00:42;99701.94;;;24.28;50.47
46598;BME280;32318;48.858;8.252;2023-07-31T16:08:42;99690.94;;;24.07;50.68
46598;BME280;32318;48.858;8.252;2023-07-31T16:16:42;99696.91;;;23.94;51.20
46598;BME280;32318;48.858;8.252;2023-07-31T16:24:43;99681.78;;;23.76;52.29
46598;BME280;32318;48.858;8.252;2023-07-31T16:32:43;99663.50;;;23.61;52.49
46598;BME280;32318;48.858;8.252;2023-07-31T16:40:43;99637.03;;;23.56;52.78
46598;BME280;32318;48.858;8.252;2023-07-31T16:48:44;99645.44;;;23.44;53.56
46598;BME280;32318;48.858;8.252;2023-07-31T16:56:44;99649.47;;;23.37;53.81
46598;BME280;32318;48.858;8.252;2023-07-31T17:04:45;99642.38;;;23.36;54.33
46598;BME280;32318;48.858;8.252;2023-07-31T17:12:46;99629.84;;;23.34;54.38
46598;BME280;32318;48.858;8.252;2023-07-31T17:20:46;99630.66;;;23.35;54.08
46598;BME280;32318;48.858;8.252;2023-07-31T17:28:46;99629.78;;;23.24;53.76
46598;BME280;32318;48.858;8.252;2023-07-31T17:36:47;99615.78;;;23.10;53.20
46598;BME280;32318;48.858;8.252;2023-07-31T17:44:47;99613.50;;;22.97;53.36
46598;BME280;32318;48.858;8.252;2023-07-31T17:52:47;99623.53;;;22.86;54.17
46598;BME280;32318;48.858;8.252;2023-07-31T18:00:51;99642.16;;;22.67;56.21
46598;BME280;32318;48.858;8.252;2023-07-31T18:08:51;99666.41;;;22.19;58.63
46598;BME280;32318;48.858;8.252;2023-07-31T18:16:51;99654.94;;;21.67;65.02
46598;BME280;32318;48.858;8.252;2023-07-31T18:24:51;99664.97;;;21.27;67.05
46598;BME280;32318;48.858;8.252;2023-07-31T18:32:52;99635.44;;;21.14;64.45
46598;BME280;32318;48.858;8.252;2023-07-31T18:40:52;99651.16;;;21.12;64.50
46598;BME280;32318;48.858;8.252;2023-07-31T18:48:53;99642.03;;;21.01;66.68
46598;BME280;32318;48.858;8.252;2023-07-31T18:56:53;99633.75;;;20.91;67.90
46598;BME280;32318;48.858;8.252;2023-07-31T19:04:53;99623.41;;;20.88;68.09
46598;BME280;32318;48.858;8.252;2023-07-31T19:12:54;99615.16;;;20.82;68.51
46598;BME280;32318;48.858;8.252;2023-07-31T19:20:54;99618.13;;;20.81;70.81
46598;BME280;32318;48.858;8.252;2023-07-31T19:28:55;99619.69;;;20.77;69.33
46598;BME280;32318;48.858;8.252;2023-07-31T19:36:55;99621.00;;;20.74;71.03
46598;BME280;32318;48.858;8.252;2023-07-31T19:44:55;99621.47;;;20.71;71.26
46598;BME280;32318;48.858;8.252;2023-07-31T19:52:56;99605.69;;;20.68;70.97
46598;BME280;32318;48.858;8.252;2023-07-31T20:00:56;99601.81;;;20.64;71.84
46598;BME280;32318;48.858;8.252;2023-07-31T20:08:56;99584.22;;;20.49;71.64
46598;BME280;32318;48.858;8.252;2023-07-31T20:16:57;99578.75;;;20.44;72.78
46598;BME280;32318;48.858;8.252;2023-07-31T20:24:57;99558.00;;;20.38;71.46
46598;BME280;32318;48.858;8.252;2023-07-31T20:32:58;99546.09;;;20.39;71.42
46598;BME280;32318;48.858;8.252;2023-07-31T20:40:58;99530.84;;;20.33;70.93
46598;BME280;32318;48.858;8.252;2023-07-31T20:48:58;99524.75;;;20.26;72.22
46598;BME280;32318;48.858;8.252;2023-07-31T20:56:58;99505.19;;;20.24;73.06
46598;BME280;32318;48.858;8.252;2023-07-31T21:04:59;99474.06;;;20.09;73.25
46598;BME280;32318;48.858;8.252;2023-07-31T21:12:59;99440.97;;;20.07;73.56
46598;BME280;32318;48.858;8.252;2023-07-31T21:20:59;99421.44;;;20.05;75.12
46598;BME280;32318;48.858;8.252;2023-07-31T21:29:00;99415.84;;;19.95;74.41
46598;BME280;32318;48.858;8.252;2023-07-31T21:37:02;99415.78;;;19.89;74.58
46598;BME280;32318;48.858;8.252;2023-07-31T21:45:02;99414.13;;;19.88;75.54
46598;BME280;32318;48.858;8.252;2023-07-31T21:53:03;99400.47;;;19.83;76.40
46598;BME280;32318;48.858;8.252;2023-07-31T22:01:03;99368.94;;;19.77;76.12
46598;BME280;32318;48.858;8.252;2023-07-31T22:09:07;99332.03;;;19.71;76.16
46598;BME280;32318;48.858;8.252;2023-07-31T22:17:07;99309.88;;;19.74;77.43
46598;BME280;32318;48.858;8.252;2023-07-31T22:25:08;99304.72;;;19.72;77.64
46598;BME280;32318;48.858;8.252;2023-07-31T22:33:08;99297.16;;;19.74;77.67
46598;BME280;32318;48.858;8.252;2023-07-31T22:41:08;99282.78;;;19.74;77.45
46598;BME280;32318;48.858;8.252;2023-07-31T22:49:09;99281.41;;;19.71;78.64
46598;BME280;32318;48.858;8.252;2023-07-31T22:57:09;99280.25;;;19.67;77.97
46598;BME280;32318;48.858;8.252;2023-07-31T23:05:09;99284.69;;;19.56;78.29
46598;BME280;32318;48.858;8.252;2023-07-31T23:13:10;99283.72;;;19.46;76.96
46598;BME280;32318;48.858;8.252;2023-07-31T23:21:10;99271.00;;;19.46;78.49
46598;BME280;32318;48.858;8.252;2023-07-31T23:29:10;99260.44;;;19.44;78.80
46598;BME280;32318;48.858;8.252;2023-07-31T23:37:11;99269.28;;;19.40;78.91
46598;BME280;32318;48.858;8.252;2023-07-31T23:45:13;99249.03;;;19.42;79.88
46598;BME280;32318;48.858;8.252;2023-07-31T23:53:14;99210.38;;;19.47;79.60
